Airfield :







YOU CAN JOIN US ON...

 
LOGIN :

Register | Disclaimer

   EN    FR    IT 

 









Legend :    VFR   Marginal VFR   IFR   Intensive IFR   Very Intensive IFR
Visi :
Ceiling :
>= 8 km
>= 3000ft
5 to 8 km
1000 to 3000 ft
1500m to 5 km
500 to 1000 ft
800 to 1500m
200 to 500 ft
< 800m
< 200 ft
Symbols :   Thunderstorms  Fog  Heavy snow  Heavy precipitations  Wind > 20 kt






- Airport Elevation : 92 ft
- IATA code : YZX


CYZX - CFB Greenwood

CURRENT METAR :
  • 180400Z 30004KT 15SM BKN022 M14/M18 A3036 RMK SC6 SLP282

EXPIRED METARs :
  • 180345Z 33006KT 15SM BKN022 M14/M18 A3035 RMK SC6 SLP279
  • 180300Z 32012G17KT 15SM BKN025 M13/M17 A3033 RMK SC6 SLP274
  • 180200Z 33003KT 15SM BKN027 M13/M17 A3033 RMK SC6 SLP274

TAF AMD TAF CYZX
Valid from the 18 at 03:00 until the 19 at 00:00 UTC


180350Z 1803/1824 33010KT P6SM BKN025
TEMPO 1803/1822 BKN020
BECMG 1816/1818 29008KT
FM182200 VRB03KT P6SM BKN020 BKN160 RMK NXT FCST BY 180600Z



MET'MAP, your aeronautical weather chart ! - Copyright ORBIFLY December 2007 - Disclaimer

ORBIFLY MET'MAP TEAM :

Programming & Development : Alexandra Zaïnal
Concept & original design : Baudouin d'Aumeries
Assistance for programming : Marc-Olivier Méhu
Technical & hardware support : Manuel Goepfert

Contact : metmap@orbifly.com




SOURCES & CREDITS :

   NOAA